sensor_id;sensor_type;location;lat;lon;timestamp;pressure;altitude;pressure_sealevel;temperature;humidity
63556;BME280;49700;48.072;7.800;2023-07-08T00:02:12;99363.88;;;22.44;nan
63556;BME280;49700;48.072;7.800;2023-07-08T00:04:39;99354.00;;;22.45;nan
63556;BME280;49700;48.072;7.800;2023-07-08T00:07:05;99362.56;;;22.40;nan
63556;BME280;49700;48.072;7.800;2023-07-08T00:09:31;99357.94;;;22.34;nan
63556;BME280;49700;48.072;7.800;2023-07-08T00:11:57;99363.81;;;22.29;nan
63556;BME280;49700;48.072;7.800;2023-07-08T00:14:23;99357.00;;;22.27;nan
63556;BME280;49700;48.072;7.800;2023-07-08T00:16:48;99358.19;;;22.24;nan
63556;BME280;49700;48.072;7.800;2023-07-08T00:19:15;99356.06;;;22.20;nan
63556;BME280;49700;48.072;7.800;2023-07-08T00:21:47;99347.22;;;22.11;nan
63556;BME280;49700;48.072;7.800;2023-07-08T00:24:12;99356.13;;;22.03;nan
63556;BME280;49700;48.072;7.800;2023-07-08T00:26:38;99347.81;;;21.98;nan
63556;BME280;49700;48.072;7.800;2023-07-08T00:29:09;99348.34;;;21.94;nan
63556;BME280;49700;48.072;7.800;2023-07-08T00:31:36;99339.50;;;21.93;nan
63556;BME280;49700;48.072;7.800;2023-07-08T00:34:04;99343.66;;;21.96;nan
63556;BME280;49700;48.072;7.800;2023-07-08T00:36:30;99338.78;;;21.99;nan
63556;BME280;49700;48.072;7.800;2023-07-08T00:38:56;99342.28;;;22.00;nan
63556;BME280;49700;48.072;7.800;2023-07-08T00:41:32;99351.03;;;21.94;nan
63556;BME280;49700;48.072;7.800;2023-07-08T00:43:59;99337.34;;;21.88;nan
63556;BME280;49700;48.072;7.800;2023-07-08T00:49:26;99344.03;;;21.84;nan
63556;BME280;49700;48.072;7.800;2023-07-08T00:51:53;99356.59;;;21.84;nan
63556;BME280;49700;48.072;7.800;2023-07-08T00:54:19;99348.75;;;21.82;nan
63556;BME280;49700;48.072;7.800;2023-07-08T00:56:49;99351.94;;;21.78;nan
63556;BME280;49700;48.072;7.800;2023-07-08T00:59:32;99349.78;;;21.73;nan
63556;BME280;49700;48.072;7.800;2023-07-08T01:02:02;99356.31;;;21.71;nan
63556;BME280;49700;48.072;7.800;2023-07-08T01:04:35;99361.56;;;21.64;nan
63556;BME280;49700;48.072;7.800;2023-07-08T01:07:03;99363.94;;;21.51;nan
63556;BME280;49700;48.072;7.800;2023-07-08T01:09:42;99366.47;;;21.44;nan
63556;BME280;49700;48.072;7.800;2023-07-08T01:12:13;99365.63;;;21.43;nan
63556;BME280;49700;48.072;7.800;2023-07-08T01:14:41;99369.69;;;21.39;nan
63556;BME280;49700;48.072;7.800;2023-07-08T01:17:08;99375.34;;;21.36;nan
63556;BME280;49700;48.072;7.800;2023-07-08T01:19:39;99371.34;;;21.32;nan
63556;BME280;49700;48.072;7.800;2023-07-08T01:22:06;99372.69;;;21.28;nan
63556;BME280;49700;48.072;7.800;2023-07-08T01:24:35;99378.69;;;21.30;nan
63556;BME280;49700;48.072;7.800;2023-07-08T01:27:02;99376.31;;;21.35;nan
63556;BME280;49700;48.072;7.800;2023-07-08T01:29:29;99385.88;;;21.38;nan
63556;BME280;49700;48.072;7.800;2023-07-08T01:31:56;99395.22;;;21.42;nan
63556;BME280;49700;48.072;7.800;2023-07-08T01:34:22;99401.72;;;21.48;nan
63556;BME280;49700;48.072;7.800;2023-07-08T01:36:51;99411.53;;;21.55;nan
63556;BME280;49700;48.072;7.800;2023-07-08T01:39:20;99403.53;;;21.55;nan
63556;BME280;49700;48.072;7.800;2023-07-08T01:41:47;99410.69;;;21.55;nan
63556;BME280;49700;48.072;7.800;2023-07-08T01:44:22;99406.34;;;21.54;nan
63556;BME280;49700;48.072;7.800;2023-07-08T01:46:47;99402.38;;;21.50;nan
63556;BME280;49700;48.072;7.800;2023-07-08T01:49:13;99405.38;;;21.47;nan
63556;BME280;49700;48.072;7.800;2023-07-08T01:51:39;99395.38;;;21.40;nan
63556;BME280;49700;48.072;7.800;2023-07-08T01:54:04;99398.72;;;21.42;nan
63556;BME280;49700;48.072;7.800;2023-07-08T01:56:29;99407.56;;;21.43;nan
63556;BME280;49700;48.072;7.800;2023-07-08T01:58:55;99400.22;;;21.37;nan
63556;BME280;49700;48.072;7.800;2023-07-08T02:01:20;99394.72;;;21.30;nan
63556;BME280;49700;48.072;7.800;2023-07-08T02:03:46;99392.25;;;21.20;nan
63556;BME280;49700;48.072;7.800;2023-07-08T02:06:11;99405.28;;;21.15;nan
63556;BME280;49700;48.072;7.800;2023-07-08T02:08:37;99408.13;;;21.06;nan
63556;BME280;49700;48.072;7.800;2023-07-08T02:11:02;99404.97;;;21.02;nan
63556;BME280;49700;48.072;7.800;2023-07-08T02:13:29;99393.47;;;21.02;nan
63556;BME280;49700;48.072;7.800;2023-07-08T02:15:54;99414.00;;;21.01;nan
63556;BME280;49700;48.072;7.800;2023-07-08T02:18:20;99401.47;;;21.02;nan
63556;BME280;49700;48.072;7.800;2023-07-08T02:20:46;99399.16;;;20.98;nan
63556;BME280;49700;48.072;7.800;2023-07-08T02:23:13;99398.81;;;20.93;nan
63556;BME280;49700;48.072;7.800;2023-07-08T02:25:39;99409.31;;;20.87;nan
63556;BME280;49700;48.072;7.800;2023-07-08T02:28:04;99427.38;;;20.85;nan
63556;BME280;49700;48.072;7.800;2023-07-08T02:30:30;99437.03;;;20.86;nan
63556;BME280;49700;48.072;7.800;2023-07-08T02:32:55;99448.06;;;20.83;nan
63556;BME280;49700;48.072;7.800;2023-07-08T02:35:26;99463.06;;;20.75;nan
63556;BME280;49700;48.072;7.800;2023-07-08T02:37:52;99469.56;;;20.73;nan
63556;BME280;49700;48.072;7.800;2023-07-08T02:40:18;99487.28;;;20.74;nan
63556;BME280;49700;48.072;7.800;2023-07-08T02:42:44;99486.59;;;20.80;nan
63556;BME280;49700;48.072;7.800;2023-07-08T02:45:12;99484.59;;;20.90;nan
63556;BME280;49700;48.072;7.800;2023-07-08T02:47:38;99485.09;;;21.02;nan
63556;BME280;49700;48.072;7.800;2023-07-08T02:50:04;99480.91;;;21.16;nan
63556;BME280;49700;48.072;7.800;2023-07-08T02:52:30;99485.88;;;21.27;nan
63556;BME280;49700;48.072;7.800;2023-07-08T02:54:56;99502.44;;;21.39;nan
63556;BME280;49700;48.072;7.800;2023-07-08T02:57:21;99499.75;;;21.47;nan
63556;BME280;49700;48.072;7.800;2023-07-08T02:59:46;99479.34;;;21.54;nan
63556;BME280;49700;48.072;7.800;2023-07-08T03:02:12;99484.66;;;21.62;nan
63556;BME280;49700;48.072;7.800;2023-07-08T03:04:37;99493.69;;;21.70;nan
63556;BME280;49700;48.072;7.800;2023-07-08T03:07:05;99499.16;;;21.76;nan
63556;BME280;49700;48.072;7.800;2023-07-08T03:09:31;99501.31;;;21.81;nan
63556;BME280;49700;48.072;7.800;2023-07-08T03:11:58;99504.16;;;21.87;nan
63556;BME280;49700;48.072;7.800;2023-07-08T03:14:24;99516.97;;;21.92;nan
63556;BME280;49700;48.072;7.800;2023-07-08T03:16:49;99525.31;;;21.97;nan
63556;BME280;49700;48.072;7.800;2023-07-08T03:19:14;99531.19;;;22.01;nan
63556;BME280;49700;48.072;7.800;2023-07-08T03:21:41;99538.00;;;22.03;nan
63556;BME280;49700;48.072;7.800;2023-07-08T03:24:09;99549.56;;;22.04;nan
63556;BME280;49700;48.072;7.800;2023-07-08T03:26:39;99552.88;;;22.06;nan
63556;BME280;49700;48.072;7.800;2023-07-08T03:29:05;99571.94;;;22.03;nan
63556;BME280;49700;48.072;7.800;2023-07-08T03:31:31;99577.97;;;21.97;nan
63556;BME280;49700;48.072;7.800;2023-07-08T03:33:57;99579.16;;;21.94;nan
63556;BME280;49700;48.072;7.800;2023-07-08T03:36:23;99577.00;;;21.90;nan
63556;BME280;49700;48.072;7.800;2023-07-08T03:38:52;99579.34;;;21.84;nan
63556;BME280;49700;48.072;7.800;2023-07-08T03:41:19;99595.72;;;21.81;nan
63556;BME280;49700;48.072;7.800;2023-07-08T03:43:44;99593.06;;;21.81;nan
63556;BME280;49700;48.072;7.800;2023-07-08T03:46:11;99586.19;;;21.87;nan
63556;BME280;49700;48.072;7.800;2023-07-08T03:48:37;99582.50;;;21.96;nan
63556;BME280;49700;48.072;7.800;2023-07-08T03:51:25;99587.97;;;22.11;nan
63556;BME280;49700;48.072;7.800;2023-07-08T03:53:51;99579.22;;;22.34;nan
63556;BME280;49700;48.072;7.800;2023-07-08T03:56:17;99590.16;;;22.55;nan
63556;BME280;49700;48.072;7.800;2023-07-08T03:58:43;99598.41;;;22.77;nan
63556;BME280;49700;48.072;7.800;2023-07-08T04:01:15;99606.84;;;22.96;nan
63556;BME280;49700;48.072;7.800;2023-07-08T04:03:42;99620.94;;;23.13;nan
63556;BME280;49700;48.072;7.800;2023-07-08T04:06:07;99628.41;;;23.26;nan
63556;BME280;49700;48.072;7.800;2023-07-08T04:08:32;99647.56;;;23.38;nan
63556;BME280;49700;48.072;7.800;2023-07-08T04:10:58;99661.56;;;23.48;nan
63556;BME280;49700;48.072;7.800;2023-07-08T04:13:23;99661.50;;;23.56;nan
63556;BME280;49700;48.072;7.800;2023-07-08T04:15:54;99662.63;;;23.62;nan
63556;BME280;49700;48.072;7.800;2023-07-08T04:18:20;99670.13;;;23.67;nan
63556;BME280;49700;48.072;7.800;2023-07-08T04:20:46;99680.16;;;23.73;nan
63556;BME280;49700;48.072;7.800;2023-07-08T04:23:20;99686.69;;;23.70;nan
63556;BME280;49700;48.072;7.800;2023-07-08T04:25:47;99699.63;;;23.67;nan
63556;BME280;49700;48.072;7.800;2023-07-08T04:28:13;99688.97;;;23.58;nan
63556;BME280;49700;48.072;7.800;2023-07-08T04:30:38;99706.78;;;23.51;nan
63556;BME280;49700;48.072;7.800;2023-07-08T04:33:10;99713.09;;;23.35;nan
63556;BME280;49700;48.072;7.800;2023-07-08T04:35:37;99714.22;;;23.18;nan
63556;BME280;49700;48.072;7.800;2023-07-08T04:38:09;99717.97;;;23.01;nan
63556;BME280;49700;48.072;7.800;2023-07-08T04:40:36;99732.28;;;22.85;nan
63556;BME280;49700;48.072;7.800;2023-07-08T04:43:06;99732.34;;;22.68;nan
63556;BME280;49700;48.072;7.800;2023-07-08T04:45:32;99730.34;;;22.54;nan
63556;BME280;49700;48.072;7.800;2023-07-08T04:47:57;99710.69;;;22.39;nan
63556;BME280;49700;48.072;7.800;2023-07-08T04:50:22;99690.78;;;22.25;nan
63556;BME280;49700;48.072;7.800;2023-07-08T04:52:48;99676.91;;;22.13;nan
63556;BME280;49700;48.072;7.800;2023-07-08T04:55:15;99676.59;;;22.00;nan
63556;BME280;49700;48.072;7.800;2023-07-08T04:57:40;99663.25;;;21.92;nan
63556;BME280;49700;48.072;7.800;2023-07-08T05:00:07;99656.59;;;21.79;nan
63556;BME280;49700;48.072;7.800;2023-07-08T05:02:36;99653.59;;;21.66;nan
63556;BME280;49700;48.072;7.800;2023-07-08T05:05:02;99642.91;;;21.58;nan
63556;BME280;49700;48.072;7.800;2023-07-08T05:07:28;99637.38;;;21.51;nan
63556;BME280;49700;48.072;7.800;2023-07-08T05:09:53;99662.09;;;21.45;nan
63556;BME280;49700;48.072;7.800;2023-07-08T05:12:18;99633.66;;;21.36;nan
63556;BME280;49700;48.072;7.800;2023-07-08T05:14:44;99636.84;;;21.31;nan
63556;BME280;49700;48.072;7.800;2023-07-08T05:17:09;99632.31;;;21.24;nan
63556;BME280;49700;48.072;7.800;2023-07-08T05:19:35;99641.00;;;21.17;nan
63556;BME280;49700;48.072;7.800;2023-07-08T05:22:00;99630.66;;;21.14;nan
63556;BME280;49700;48.072;7.800;2023-07-08T05:24:26;99644.00;;;21.14;nan
63556;BME280;49700;48.072;7.800;2023-07-08T05:26:52;99645.47;;;21.09;nan
63556;BME280;49700;48.072;7.800;2023-07-08T05:29:17;99628.81;;;21.07;nan
63556;BME280;49700;48.072;7.800;2023-07-08T05:31:42;99628.13;;;21.05;nan
63556;BME280;49700;48.072;7.800;2023-07-08T05:34:08;99625.94;;;21.00;nan
63556;BME280;49700;48.072;7.800;2023-07-08T05:36:33;99609.09;;;20.99;nan
63556;BME280;49700;48.072;7.800;2023-07-08T05:38:59;99584.72;;;20.94;nan
63556;BME280;49700;48.072;7.800;2023-07-08T05:41:24;99562.03;;;20.90;nan
63556;BME280;49700;48.072;7.800;2023-07-08T05:43:50;99551.66;;;20.87;nan
63556;BME280;49700;48.072;7.800;2023-07-08T05:46:15;99563.34;;;20.86;nan
63556;BME280;49700;48.072;7.800;2023-07-08T05:48:41;99580.38;;;20.85;nan
63556;BME280;49700;48.072;7.800;2023-07-08T05:51:06;99598.72;;;20.88;nan
63556;BME280;49700;48.072;7.800;2023-07-08T05:53:32;99605.72;;;20.89;nan
63556;BME280;49700;48.072;7.800;2023-07-08T05:55:57;99615.09;;;20.93;nan
63556;BME280;49700;48.072;7.800;2023-07-08T05:58:22;99626.59;;;20.94;nan
63556;BME280;49700;48.072;7.800;2023-07-08T06:00:55;99641.97;;;21.00;nan
63556;BME280;49700;48.072;7.800;2023-07-08T06:03:21;99631.81;;;20.95;nan
63556;BME280;49700;48.072;7.800;2023-07-08T06:05:46;99616.44;;;20.97;nan
63556;BME280;49700;48.072;7.800;2023-07-08T06:08:11;99593.91;;;21.00;nan
63556;BME280;49700;48.072;7.800;2023-07-08T06:10:42;99586.72;;;21.09;nan
63556;BME280;49700;48.072;7.800;2023-07-08T06:13:08;99571.72;;;21.16;nan
63556;BME280;49700;48.072;7.800;2023-07-08T06:15:33;99576.72;;;21.27;nan
63556;BME280;49700;48.072;7.800;2023-07-08T06:17:59;99610.31;;;21.38;nan
63556;BME280;49700;48.072;7.800;2023-07-08T06:20:28;99638.38;;;21.42;nan
63556;BME280;49700;48.072;7.800;2023-07-08T06:22:53;99632.69;;;21.45;nan
63556;BME280;49700;48.072;7.800;2023-07-08T06:25:19;99635.03;;;21.48;nan
63556;BME280;49700;48.072;7.800;2023-07-08T06:27:44;99631.19;;;21.51;nan
63556;BME280;49700;48.072;7.800;2023-07-08T06:30:10;99610.81;;;21.58;nan
63556;BME280;49700;48.072;7.800;2023-07-08T06:32:35;99614.13;;;21.68;nan
63556;BME280;49700;48.072;7.800;2023-07-08T06:35:01;99627.84;;;21.73;nan
63556;BME280;49700;48.072;7.800;2023-07-08T06:37:26;99635.84;;;21.81;nan
63556;BME280;49700;48.072;7.800;2023-07-08T06:39:51;99616.28;;;21.89;nan
63556;BME280;49700;48.072;7.800;2023-07-08T06:42:17;99606.75;;;21.86;nan
63556;BME280;49700;48.072;7.800;2023-07-08T06:44:51;99588.53;;;21.90;nan
63556;BME280;49700;48.072;7.800;2023-07-08T06:47:18;99592.53;;;21.94;nan
63556;BME280;49700;48.072;7.800;2023-07-08T06:49:46;99598.88;;;22.01;nan
63556;BME280;49700;48.072;7.800;2023-07-08T06:52:11;99611.88;;;22.13;nan
63556;BME280;49700;48.072;7.800;2023-07-08T06:54:36;99615.88;;;22.25;nan
63556;BME280;49700;48.072;7.800;2023-07-08T06:57:02;99618.84;;;22.30;nan
63556;BME280;49700;48.072;7.800;2023-07-08T06:59:27;99636.06;;;22.36;nan
63556;BME280;49700;48.072;7.800;2023-07-08T07:01:54;99645.56;;;22.46;nan
63556;BME280;49700;48.072;7.800;2023-07-08T07:04:20;99640.84;;;22.57;nan
63556;BME280;49700;48.072;7.800;2023-07-08T07:06:45;99639.25;;;22.70;nan
63556;BME280;49700;48.072;7.800;2023-07-08T07:09:10;99644.72;;;22.85;nan
63556;BME280;49700;48.072;7.800;2023-07-08T07:11:36;99647.84;;;22.97;nan
63556;BME280;49700;48.072;7.800;2023-07-08T07:14:01;99648.09;;;23.10;nan
63556;BME280;49700;48.072;7.800;2023-07-08T07:16:28;99640.69;;;23.21;nan
63556;BME280;49700;48.072;7.800;2023-07-08T07:18:53;99649.72;;;23.42;nan
63556;BME280;49700;48.072;7.800;2023-07-08T07:21:19;99656.00;;;23.96;nan
63556;BME280;49700;48.072;7.800;2023-07-08T07:23:44;99659.72;;;24.69;nan
63556;BME280;49700;48.072;7.800;2023-07-08T07:26:10;99662.25;;;25.50;nan
63556;BME280;49700;48.072;7.800;2023-07-08T07:28:35;99650.03;;;26.32;nan
63556;BME280;49700;48.072;7.800;2023-07-08T07:31:01;99662.59;;;27.07;nan
63556;BME280;49700;48.072;7.800;2023-07-08T07:33:27;99654.63;;;27.80;nan
63556;BME280;49700;48.072;7.800;2023-07-08T07:35:52;99652.03;;;28.45;nan
63556;BME280;49700;48.072;7.800;2023-07-08T07:38:18;99650.56;;;29.01;nan
63556;BME280;49700;48.072;7.800;2023-07-08T07:40:44;99653.31;;;29.58;nan
63556;BME280;49700;48.072;7.800;2023-07-08T07:43:10;99648.09;;;29.88;nan
63556;BME280;49700;48.072;7.800;2023-07-08T07:45:35;99664.31;;;29.63;nan
63556;BME280;49700;48.072;7.800;2023-07-08T07:48:01;99660.63;;;29.58;nan
63556;BME280;49700;48.072;7.800;2023-07-08T07:50:27;99665.41;;;29.30;nan
63556;BME280;49700;48.072;7.800;2023-07-08T07:52:53;99665.84;;;29.27;nan
63556;BME280;49700;48.072;7.800;2023-07-08T07:55:18;99668.81;;;29.19;nan
63556;BME280;49700;48.072;7.800;2023-07-08T07:57:44;99668.66;;;29.39;nan
63556;BME280;49700;48.072;7.800;2023-07-08T08:00:11;99669.31;;;29.66;nan
63556;BME280;49700;48.072;7.800;2023-07-08T08:02:39;99658.53;;;29.85;nan
63556;BME280;49700;48.072;7.800;2023-07-08T08:05:04;99666.47;;;30.05;nan
63556;BME280;49700;48.072;7.800;2023-07-08T08:07:30;99666.31;;;30.25;nan
63556;BME280;49700;48.072;7.800;2023-07-08T08:09:55;99668.94;;;30.50;nan
63556;BME280;49700;48.072;7.800;2023-07-08T08:12:21;99667.78;;;30.76;nan
63556;BME280;49700;48.072;7.800;2023-07-08T08:14:50;99669.63;;;30.82;nan
63556;BME280;49700;48.072;7.800;2023-07-08T08:17:16;99662.31;;;30.46;nan
63556;BME280;49700;48.072;7.800;2023-07-08T08:19:41;99675.13;;;29.95;nan
63556;BME280;49700;48.072;7.800;2023-07-08T08:22:06;99669.84;;;29.50;nan
63556;BME280;49700;48.072;7.800;2023-07-08T08:24:33;99679.69;;;29.06;nan
63556;BME280;49700;48.072;7.800;2023-07-08T08:26:59;99675.25;;;28.66;nan
63556;BME280;49700;48.072;7.800;2023-07-08T08:29:24;99680.97;;;28.25;nan
63556;BME280;49700;48.072;7.800;2023-07-08T08:31:50;99686.41;;;27.92;nan
63556;BME280;49700;48.072;7.800;2023-07-08T08:34:16;99688.88;;;27.67;nan
63556;BME280;49700;48.072;7.800;2023-07-08T08:36:41;99687.19;;;27.52;nan
63556;BME280;49700;48.072;7.800;2023-07-08T08:39:26;99679.47;;;27.29;nan
63556;BME280;49700;48.072;7.800;2023-07-08T08:41:56;99679.03;;;27.19;nan
63556;BME280;49700;48.072;7.800;2023-07-08T08:44:36;99676.72;;;27.09;nan
63556;BME280;49700;48.072;7.800;2023-07-08T08:47:31;99679.59;;;27.01;nan
63556;BME280;49700;48.072;7.800;2023-07-08T08:50:21;99681.25;;;26.96;nan
63556;BME280;49700;48.072;7.800;2023-07-08T08:52:50;99684.13;;;26.94;nan
63556;BME280;49700;48.072;7.800;2023-07-08T08:55:16;99673.59;;;27.06;nan
63556;BME280;49700;48.072;7.800;2023-07-08T08:57:49;99673.69;;;27.46;nan
63556;BME280;49700;48.072;7.800;2023-07-08T09:00:23;99662.72;;;27.94;nan
63556;BME280;49700;48.072;7.800;2023-07-08T09:02:59;99661.63;;;28.28;nan
63556;BME280;49700;48.072;7.800;2023-07-08T09:05:27;99659.13;;;28.47;nan
63556;BME280;49700;48.072;7.800;2023-07-08T09:08:13;99666.13;;;28.54;nan
63556;BME280;49700;48.072;7.800;2023-07-08T09:10:46;99661.97;;;28.58;nan
63556;BME280;49700;48.072;7.800;2023-07-08T09:13:26;99660.09;;;28.59;nan
63556;BME280;49700;48.072;7.800;2023-07-08T09:19:08;99658.28;;;28.46;nan
63556;BME280;49700;48.072;7.800;2023-07-08T09:21:48;99658.06;;;28.41;nan
63556;BME280;49700;48.072;7.800;2023-07-08T09:24:25;99647.47;;;28.46;nan
63556;BME280;49700;48.072;7.800;2023-07-08T09:26:54;99649.88;;;28.67;nan
63556;BME280;49700;48.072;7.800;2023-07-08T09:29:22;99656.41;;;28.92;nan
63556;BME280;49700;48.072;7.800;2023-07-08T09:31:48;99649.59;;;29.27;nan
63556;BME280;49700;48.072;7.800;2023-07-08T09:34:16;99642.03;;;29.61;nan
63556;BME280;49700;48.072;7.800;2023-07-08T09:36:45;99637.03;;;29.90;nan
63556;BME280;49700;48.072;7.800;2023-07-08T09:39:19;99630.06;;;30.19;nan
63556;BME280;49700;48.072;7.800;2023-07-08T09:41:47;99630.34;;;30.36;nan
63556;BME280;49700;48.072;7.800;2023-07-08T09:44:17;99630.06;;;30.56;nan
63556;BME280;49700;48.072;7.800;2023-07-08T09:46:43;99634.81;;;30.79;nan
63556;BME280;49700;48.072;7.800;2023-07-08T09:49:35;99631.84;;;30.99;nan
63556;BME280;49700;48.072;7.800;2023-07-08T09:52:01;99632.06;;;30.97;nan
63556;BME280;49700;48.072;7.800;2023-07-08T09:54:27;99629.53;;;31.14;nan
63556;BME280;49700;48.072;7.800;2023-07-08T09:57:03;99624.03;;;31.33;nan
63556;BME280;49700;48.072;7.800;2023-07-08T09:59:32;99630.56;;;31.43;nan
63556;BME280;49700;48.072;7.800;2023-07-08T10:02:02;99628.69;;;31.56;nan
63556;BME280;49700;48.072;7.800;2023-07-08T10:04:29;99625.97;;;31.56;nan
63556;BME280;49700;48.072;7.800;2023-07-08T10:06:54;99619.03;;;31.60;nan
63556;BME280;49700;48.072;7.800;2023-07-08T10:09:24;99617.25;;;31.65;nan
63556;BME280;49700;48.072;7.800;2023-07-08T10:12:02;99622.22;;;31.68;nan
63556;BME280;49700;48.072;7.800;2023-07-08T10:14:44;99628.72;;;31.79;nan
63556;BME280;49700;48.072;7.800;2023-07-08T10:17:16;99630.50;;;31.97;nan
63556;BME280;49700;48.072;7.800;2023-07-08T10:19:42;99633.22;;;32.09;nan
63556;BME280;49700;48.072;7.800;2023-07-08T10:22:33;99626.47;;;32.11;nan
63556;BME280;49700;48.072;7.800;2023-07-08T10:27:49;99633.91;;;32.16;nan
63556;BME280;49700;48.072;7.800;2023-07-08T10:30:24;99624.34;;;32.13;nan
63556;BME280;49700;48.072;7.800;2023-07-08T10:35:21;99620.69;;;32.20;nan
63556;BME280;49700;48.072;7.800;2023-07-08T10:47:10;99627.22;;;32.88;nan
63556;BME280;49700;48.072;7.800;2023-07-08T10:50:15;99623.44;;;32.89;nan
63556;BME280;49700;48.072;7.800;2023-07-08T10:55:55;99628.88;;;32.60;nan
63556;BME280;49700;48.072;7.800;2023-07-08T10:58:41;99619.66;;;32.61;nan
63556;BME280;49700;48.072;7.800;2023-07-08T11:01:24;99623.63;;;32.70;nan
63556;BME280;49700;48.072;7.800;2023-07-08T11:09:36;99617.69;;;33.14;nan
63556;BME280;49700;48.072;7.800;2023-07-08T11:12:19;99618.53;;;33.02;nan
63556;BME280;49700;48.072;7.800;2023-07-08T11:14:49;99624.72;;;32.98;nan
63556;BME280;49700;48.072;7.800;2023-07-08T11:17:46;99621.03;;;33.04;nan
63556;BME280;49700;48.072;7.800;2023-07-08T11:20:18;99619.16;;;33.21;nan
63556;BME280;49700;48.072;7.800;2023-07-08T11:22:53;99621.91;;;33.38;nan
63556;BME280;49700;48.072;7.800;2023-07-08T11:25:21;99620.19;;;33.49;nan
63556;BME280;49700;48.072;7.800;2023-07-08T11:27:52;99616.28;;;33.45;nan
63556;BME280;49700;48.072;7.800;2023-07-08T11:30:22;99607.28;;;33.44;nan
63556;BME280;49700;48.072;7.800;2023-07-08T11:32:57;99612.75;;;33.44;nan
63556;BME280;49700;48.072;7.800;2023-07-08T11:35:45;99615.53;;;33.49;nan
63556;BME280;49700;48.072;7.800;2023-07-08T11:38:17;99610.28;;;33.60;nan
63556;BME280;49700;48.072;7.800;2023-07-08T11:40:53;99607.31;;;33.61;nan
63556;BME280;49700;48.072;7.800;2023-07-08T11:43:20;99600.53;;;33.47;nan
63556;BME280;49700;48.072;7.800;2023-07-08T11:45:48;99611.25;;;33.37;nan
63556;BME280;49700;48.072;7.800;2023-07-08T11:48:21;99604.97;;;33.36;nan
63556;BME280;49700;48.072;7.800;2023-07-08T11:50:48;99597.06;;;33.35;nan
63556;BME280;49700;48.072;7.800;2023-07-08T11:56:03;99587.31;;;33.39;nan
63556;BME280;49700;48.072;7.800;2023-07-08T11:58:51;99590.94;;;33.44;nan
63556;BME280;49700;48.072;7.800;2023-07-08T12:03:51;99585.31;;;33.51;nan
63556;BME280;49700;48.072;7.800;2023-07-08T12:08:52;99579.44;;;33.54;nan
63556;BME280;49700;48.072;7.800;2023-07-08T12:11:18;99591.97;;;33.55;nan
63556;BME280;49700;48.072;7.800;2023-07-08T12:13:49;99584.38;;;33.57;nan
63556;BME280;49700;48.072;7.800;2023-07-08T12:16:20;99582.03;;;33.49;nan
63556;BME280;49700;48.072;7.800;2023-07-08T12:18:47;99588.22;;;33.44;nan
63556;BME280;49700;48.072;7.800;2023-07-08T12:21:14;99582.78;;;33.44;nan
63556;BME280;49700;48.072;7.800;2023-07-08T12:23:46;99581.97;;;33.44;nan
63556;BME280;49700;48.072;7.800;2023-07-08T12:26:12;99588.31;;;33.49;nan
63556;BME280;49700;48.072;7.800;2023-07-08T12:28:41;99578.94;;;33.57;nan
63556;BME280;49700;48.072;7.800;2023-07-08T12:31:18;99570.34;;;33.65;nan
63556;BME280;49700;48.072;7.800;2023-07-08T12:33:46;99574.78;;;33.71;nan
63556;BME280;49700;48.072;7.800;2023-07-08T12:36:17;99572.13;;;33.77;nan
63556;BME280;49700;48.072;7.800;2023-07-08T12:38:44;99578.66;;;33.76;nan
63556;BME280;49700;48.072;7.800;2023-07-08T12:41:21;99579.72;;;33.75;nan
63556;BME280;49700;48.072;7.800;2023-07-08T12:43:48;99575.59;;;33.72;nan
63556;BME280;49700;48.072;7.800;2023-07-08T12:46:15;99572.28;;;33.70;nan
63556;BME280;49700;48.072;7.800;2023-07-08T12:48:41;99571.47;;;33.69;nan
63556;BME280;49700;48.072;7.800;2023-07-08T12:51:13;99579.91;;;33.68;nan
63556;BME280;49700;48.072;7.800;2023-07-08T12:53:38;99573.97;;;33.71;nan
63556;BME280;49700;48.072;7.800;2023-07-08T12:56:05;99554.38;;;33.74;nan
63556;BME280;49700;48.072;7.800;2023-07-08T12:58:34;99555.94;;;33.70;nan
63556;BME280;49700;48.072;7.800;2023-07-08T13:01:04;99555.13;;;33.69;nan
63556;BME280;49700;48.072;7.800;2023-07-08T13:03:34;99564.38;;;33.68;nan
63556;BME280;49700;48.072;7.800;2023-07-08T13:06:01;99567.09;;;33.68;nan
63556;BME280;49700;48.072;7.800;2023-07-08T13:08:30;99564.38;;;33.68;nan
63556;BME280;49700;48.072;7.800;2023-07-08T13:10:58;99553.22;;;33.70;nan
63556;BME280;49700;48.072;7.800;2023-07-08T13:13:30;99553.50;;;33.68;nan
63556;BME280;49700;48.072;7.800;2023-07-08T13:15:57;99551.81;;;33.67;nan
63556;BME280;49700;48.072;7.800;2023-07-08T13:18:37;99548.13;;;33.74;nan
63556;BME280;49700;48.072;7.800;2023-07-08T13:21:05;99543.06;;;33.82;nan
63556;BME280;49700;48.072;7.800;2023-07-08T13:23:32;99537.69;;;33.87;nan
63556;BME280;49700;48.072;7.800;2023-07-08T13:25:58;99541.22;;;33.88;nan
63556;BME280;49700;48.072;7.800;2023-07-08T13:28:30;99539.31;;;33.88;nan
63556;BME280;49700;48.072;7.800;2023-07-08T13:31:02;99539.00;;;33.85;nan
63556;BME280;49700;48.072;7.800;2023-07-08T13:33:32;99543.13;;;33.87;nan
63556;BME280;49700;48.072;7.800;2023-07-08T13:36:01;99539.31;;;33.88;nan
63556;BME280;49700;48.072;7.800;2023-07-08T13:38:32;99539.38;;;33.93;nan
63556;BME280;49700;48.072;7.800;2023-07-08T13:41:01;99536.16;;;33.97;nan
63556;BME280;49700;48.072;7.800;2023-07-08T13:43:36;99529.13;;;34.01;nan
63556;BME280;49700;48.072;7.800;2023-07-08T13:46:03;99530.75;;;34.02;nan
63556;BME280;49700;48.072;7.800;2023-07-08T13:48:34;99528.63;;;34.04;nan
63556;BME280;49700;48.072;7.800;2023-07-08T13:58:42;99525.09;;;34.25;nan
63556;BME280;49700;48.072;7.800;2023-07-08T14:01:21;99516.16;;;34.30;nan
63556;BME280;49700;48.072;7.800;2023-07-08T14:03:47;99514.81;;;34.32;nan
63556;BME280;49700;48.072;7.800;2023-07-08T14:06:21;99515.13;;;34.36;nan
63556;BME280;49700;48.072;7.800;2023-07-08T14:08:47;99520.06;;;34.39;nan
63556;BME280;49700;48.072;7.800;2023-07-08T14:11:12;99517.38;;;34.44;nan
63556;BME280;49700;48.072;7.800;2023-07-08T14:13:38;99514.72;;;34.49;nan
63556;BME280;49700;48.072;7.800;2023-07-08T14:16:10;99508.75;;;34.52;nan